Hyder, Alaska
Current Conditions -  °F | °C
As of 1:53 PM on Wednesday 22 Oct 2014 (Local Time) from PAKT Reporting Station
Light Rain Light Rain  
Wind Chill: 49°   Ceiling: 4000
Heat Index: 49°   Visibility: 10mi
Dew Point: 46°   Wind: 3mph
Humidity: 90%   Direction: 200°SSW
Pressure: 29.42"   Gusts: NA
Location:  55.92°N, 130.04°W
Report Text: PAKT 222153Z 20003KT 10SM -RA OVC040 09/08 A2942 RMK AO2 RAB14 SLP962 P0001 T00940078
Loading
Personal Weather Stations






























Interactive Weather Map
Tropical Storm Tracking
New forecast layout! Learn more

10-Day Weather Forecast

Advertisements
Track Severe Weather on mobile